createdAt,value
2023-09-17T07:41:47.567Z,22.30
2023-09-17T07:44:56.197Z,22.30
2023-09-17T07:48:05.359Z,22.40
2023-09-17T07:51:13.485Z,22.40
2023-09-17T07:54:21.626Z,22.40
2023-09-17T07:57:30.790Z,22.40
2023-09-17T08:00:38.971Z,22.40
2023-09-17T08:03:47.527Z,22.40
2023-09-17T08:06:56.116Z,22.40
2023-09-17T08:10:04.711Z,22.40
2023-09-17T08:13:14.983Z,22.40
2023-09-17T08:16:25.030Z,22.40
2023-09-17T08:19:33.252Z,22.40
2023-09-17T08:22:42.147Z,22.40
2023-09-17T08:25:51.957Z,22.50
2023-09-17T08:29:02.878Z,22.40
2023-09-17T08:32:12.335Z,22.40
2023-09-17T08:35:20.385Z,22.40
2023-09-17T08:38:28.118Z,22.50
2023-09-17T08:41:36.968Z,22.40
2023-09-17T08:44:46.587Z,22.50
2023-09-17T08:47:54.744Z,22.50
2023-09-17T08:51:02.683Z,22.50
2023-09-17T08:54:12.313Z,22.50
2023-09-17T08:57:22.020Z,22.50
2023-09-17T09:00:31.371Z,22.50
2023-09-17T09:03:39.595Z,22.50
2023-09-17T09:06:47.671Z,22.50
2023-09-17T09:09:56.106Z,22.50
2023-09-17T09:13:04.519Z,22.50
2023-09-17T09:16:14.018Z,22.50
2023-09-17T09:19:21.999Z,22.50
2023-09-17T09:22:30.151Z,22.60
2023-09-17T09:25:38.450Z,22.60
2023-09-17T09:28:46.865Z,22.60
2023-09-17T09:31:56.238Z,22.60
2023-09-17T09:35:04.200Z,22.60
2023-09-17T09:38:12.960Z,22.60
2023-09-17T09:41:20.905Z,22.60
2023-09-17T09:44:28.583Z,22.60
2023-09-17T09:47:39.777Z,22.60
2023-09-17T09:50:49.193Z,22.60
2023-09-17T09:53:57.952Z,22.60
2023-09-17T09:57:07.028Z,22.60
2023-09-17T10:00:17.912Z,22.70
2023-09-17T10:03:28.596Z,22.70
2023-09-17T10:06:37.551Z,22.70
2023-09-17T10:09:45.251Z,22.70
2023-09-17T10:12:54.418Z,22.70
2023-09-17T10:16:03.146Z,22.70
2023-09-17T10:19:13.130Z,22.70
2023-09-17T10:22:21.162Z,22.70
2023-09-17T10:25:29.698Z,22.70
2023-09-17T10:28:38.167Z,22.70
2023-09-17T10:31:46.575Z,22.70
2023-09-17T10:34:58.283Z,22.80
2023-09-17T10:38:06.912Z,22.80
2023-09-17T10:41:15.307Z,22.80
2023-09-17T10:44:24.779Z,22.80
2023-09-17T10:47:32.796Z,22.80
2023-09-17T10:50:42.268Z,22.80
2023-09-17T10:53:50.801Z,22.80
2023-09-17T10:56:59.144Z,22.80
2023-09-17T11:00:12.602Z,22.80
2023-09-17T11:03:22.334Z,22.90
2023-09-17T11:06:32.971Z,22.90
2023-09-17T11:09:41.198Z,22.90
2023-09-17T11:12:49.503Z,22.80
2023-09-17T11:15:57.615Z,22.90
2023-09-17T11:19:06.857Z,22.90
2023-09-17T11:22:16.025Z,22.90
2023-09-17T11:25:36.949Z,22.90
2023-09-17T11:28:45.245Z,22.90
2023-09-17T11:32:04.485Z,23.00
2023-09-17T11:35:13.187Z,23.00
2023-09-17T11:38:25.729Z,23.00
2023-09-17T11:41:42.716Z,23.00
2023-09-17T11:44:53.499Z,23.00
2023-09-17T11:48:02.036Z,23.00
2023-09-17T11:51:21.870Z,23.00
2023-09-17T11:54:35.318Z,23.00
2023-09-17T11:57:43.580Z,23.00
2023-09-17T12:00:51.917Z,23.10
2023-09-17T12:04:00.072Z,23.10
2023-09-17T12:07:10.090Z,23.10
2023-09-17T12:10:21.252Z,23.10
2023-09-17T12:13:31.574Z,23.10
2023-09-17T12:16:39.924Z,23.10
2023-09-17T12:20:02.025Z,23.10
2023-09-17T12:23:38.811Z,23.10
2023-09-17T12:27:20.757Z,23.10
2023-09-17T12:30:30.616Z,23.10
2023-09-17T12:33:39.691Z,23.20
2023-09-17T12:36:47.601Z,23.20
2023-09-17T12:39:55.894Z,23.20
2023-09-17T12:43:06.880Z,23.20
2023-09-17T12:46:14.894Z,23.10
2023-09-17T12:49:24.040Z,23.20
2023-09-17T12:52:32.128Z,23.20
2023-09-17T12:55:40.278Z,23.20
2023-09-17T12:58:52.355Z,23.20
2023-09-17T13:02:01.351Z,23.20
2023-09-17T13:05:19.417Z,23.30
2023-09-17T13:08:28.412Z,23.30
2023-09-17T13:11:36.484Z,23.30
2023-09-17T13:14:45.913Z,23.20
2023-09-17T13:17:54.061Z,23.30
2023-09-17T13:21:02.221Z,23.30
2023-09-17T13:24:11.373Z,23.30
2023-09-17T13:27:19.694Z,23.30
2023-09-17T13:30:29.052Z,23.30
2023-09-17T13:33:38.809Z,23.40
2023-09-17T13:36:47.073Z,23.40
2023-09-17T13:39:55.129Z,23.40
2023-09-17T13:43:03.313Z,23.40
2023-09-17T13:46:16.795Z,23.40
2023-09-17T13:49:25.011Z,23.40
2023-09-17T13:52:32.902Z,23.50
2023-09-17T13:55:41.212Z,23.40
2023-09-17T13:58:49.528Z,23.50
2023-09-17T14:01:59.334Z,23.50
2023-09-17T14:05:07.803Z,23.50
2023-09-17T14:08:15.810Z,23.50
2023-09-17T14:11:25.329Z,23.50
2023-09-17T14:14:33.504Z,23.50
2023-09-17T14:17:42.970Z,23.50
2023-09-17T14:20:51.172Z,23.50
2023-09-17T14:23:59.325Z,23.60
2023-09-17T14:27:07.184Z,23.50
2023-09-17T14:30:22.491Z,23.60
2023-09-17T14:33:31.674Z,23.60
2023-09-17T14:36:39.609Z,23.60
2023-09-17T14:39:47.824Z,23.60
2023-09-17T14:42:56.094Z,23.60
2023-09-17T14:46:04.036Z,23.60
2023-09-17T14:49:13.633Z,23.70
2023-09-17T14:52:21.893Z,23.70
2023-09-17T14:55:30.080Z,23.60
2023-09-17T14:58:38.421Z,23.60
2023-09-17T15:04:58.993Z,23.70
2023-09-17T15:08:07.290Z,23.60
2023-09-17T15:11:15.388Z,23.70
2023-09-17T15:14:23.436Z,23.70
2023-09-17T15:17:31.567Z,23.70
2023-09-17T15:20:41.077Z,23.70
2023-09-17T15:23:48.847Z,23.70
2023-09-17T15:26:56.828Z,23.70
2023-09-17T15:30:05.685Z,23.70
2023-09-17T15:33:13.866Z,23.70
2023-09-17T15:36:23.852Z,23.70
2023-09-17T15:39:32.048Z,23.70
2023-09-17T15:42:40.170Z,23.70
2023-09-17T15:45:48.332Z,23.70
2023-09-17T15:48:56.542Z,23.70
2023-09-17T15:52:06.102Z,23.70
2023-09-17T15:55:14.568Z,23.70
2023-09-17T15:58:22.481Z,23.70
2023-09-17T16:01:30.718Z,23.70
2023-09-17T16:04:38.655Z,23.70
2023-09-17T16:07:51.528Z,23.70
2023-09-17T16:10:59.671Z,23.70
2023-09-17T16:14:07.607Z,23.70
2023-09-17T16:17:15.558Z,23.70
2023-09-17T16:20:23.724Z,23.70
2023-09-17T16:23:33.202Z,23.70
2023-09-17T16:26:41.300Z,23.70
2023-09-17T16:29:49.532Z,23.70
2023-09-17T16:32:57.630Z,23.70
2023-09-17T16:36:05.628Z,23.70
2023-09-17T16:39:15.012Z,23.70
2023-09-17T16:42:22.762Z,23.70
2023-09-17T16:45:30.867Z,23.70
2023-09-17T16:48:39.034Z,23.70
2023-09-17T16:51:47.817Z,23.70
2023-09-17T16:54:57.121Z,23.60
2023-09-17T16:58:05.094Z,23.70
2023-09-17T17:01:13.371Z,23.60
2023-09-17T17:04:21.458Z,23.60
2023-09-17T17:07:30.654Z,23.60
2023-09-17T17:10:40.561Z,23.70
2023-09-17T17:13:48.665Z,23.60
2023-09-17T17:16:58.374Z,23.60
2023-09-17T17:20:08.271Z,23.60
2023-09-17T17:23:17.719Z,23.60
2023-09-17T17:26:27.547Z,23.60
2023-09-17T17:29:35.797Z,23.60
2023-09-17T17:32:46.133Z,23.60
2023-09-17T17:35:54.323Z,23.60
2023-09-17T17:39:02.307Z,23.60
2023-09-17T17:42:11.838Z,23.60
2023-09-17T17:45:21.505Z,23.60
2023-09-17T17:48:29.804Z,23.60
2023-09-17T17:51:37.940Z,23.60
2023-09-17T17:54:45.962Z,23.60
2023-09-17T17:57:55.274Z,23.60
2023-09-17T18:01:04.140Z,23.60
2023-09-17T18:04:12.022Z,23.50
2023-09-17T18:07:19.990Z,23.60
2023-09-17T18:10:28.032Z,23.50
2023-09-17T18:13:37.499Z,23.50
2023-09-17T18:16:46.017Z,23.50
2023-09-17T18:19:54.152Z,23.50
2023-09-17T18:23:02.434Z,23.40
2023-09-17T18:26:10.594Z,23.40
2023-09-17T18:29:22.200Z,23.40
2023-09-17T18:32:30.282Z,23.40
2023-09-17T18:35:38.569Z,23.40
2023-09-17T18:38:46.652Z,23.40
2023-09-17T18:41:54.716Z,23.40
2023-09-17T18:45:04.744Z,23.40
2023-09-17T18:48:13.565Z,23.40
2023-09-17T18:51:21.740Z,23.40
2023-09-17T18:54:29.669Z,23.30
2023-09-17T18:57:40.654Z,23.40
2023-09-17T19:00:50.098Z,23.30
2023-09-17T19:03:58.395Z,23.30
2023-09-17T19:07:06.296Z,23.30
2023-09-17T19:10:16.188Z,23.30
2023-09-17T19:13:24.463Z,23.30
2023-09-17T19:16:33.893Z,23.30
2023-09-17T19:19:41.984Z,23.20
2023-09-17T19:22:50.029Z,23.10
2023-09-17T19:25:58.131Z,23.20
2023-09-17T19:29:06.481Z,23.20
2023-09-17T19:32:15.899Z,23.20
2023-09-17T19:35:24.119Z,23.20
2023-09-17T19:38:32.455Z,23.20
2023-09-17T19:41:40.867Z,23.20
2023-09-17T19:44:49.475Z,23.20
2023-09-17T19:47:59.893Z,23.20
2023-09-17T19:51:10.116Z,23.20
2023-09-17T19:54:18.366Z,23.20
2023-09-17T19:57:26.638Z,23.20
2023-09-17T20:00:34.973Z,23.20
2023-09-17T20:03:44.415Z,23.20
2023-09-17T20:06:55.719Z,23.20
2023-09-17T20:10:05.313Z,23.20
2023-09-17T20:13:15.145Z,23.20
2023-09-17T20:16:23.197Z,23.20
2023-09-17T20:19:36.187Z,23.20
2023-09-17T20:22:45.352Z,23.20
2023-09-17T20:25:53.574Z,23.20
2023-09-17T20:29:01.577Z,23.20
2023-09-17T20:32:09.503Z,23.20
2023-09-17T20:35:18.905Z,23.10
2023-09-17T20:38:26.900Z,23.20
2023-09-17T20:41:34.754Z,23.10
2023-09-17T20:44:42.792Z,23.20
2023-09-17T20:47:50.924Z,23.20
2023-09-17T20:51:02.150Z,23.10
2023-09-17T20:54:11.566Z,23.10
2023-09-17T20:57:21.342Z,23.10
2023-09-17T21:00:29.287Z,23.10
2023-09-17T21:03:37.246Z,23.10
2023-09-17T21:06:46.760Z,23.10
2023-09-17T21:09:55.403Z,23.10
2023-09-17T21:13:03.706Z,23.10
2023-09-17T21:16:13.145Z,23.10
2023-09-17T21:19:22.581Z,23.10
2023-09-17T21:22:32.290Z,23.10
2023-09-17T21:25:40.163Z,23.10
2023-09-17T21:28:48.115Z,23.10
2023-09-17T21:31:56.583Z,23.10
2023-09-17T21:35:06.946Z,23.10
2023-09-17T21:38:16.405Z,23.00
2023-09-17T21:41:24.710Z,23.00
2023-09-17T21:44:32.696Z,23.00
2023-09-17T21:47:40.928Z,23.00
2023-09-17T21:50:48.924Z,23.00
2023-09-17T21:53:58.452Z,23.00
2023-09-17T21:57:10.377Z,23.00
2023-09-17T22:00:24.628Z,23.00
2023-09-17T22:03:33.263Z,23.00
2023-09-17T22:06:41.702Z,23.00
2023-09-17T22:09:50.851Z,23.00
2023-09-17T22:12:59.059Z,22.90
2023-09-17T22:16:07.305Z,22.90
2023-09-17T22:19:15.413Z,22.90
2023-09-17T22:22:23.536Z,22.90
2023-09-17T22:25:33.066Z,22.90
2023-09-17T22:28:41.525Z,22.90
2023-09-17T22:31:49.716Z,22.90
2023-09-17T22:34:57.857Z,22.90
2023-09-17T22:38:05.773Z,22.90
2023-09-17T22:41:21.376Z,22.80
2023-09-17T22:44:29.759Z,22.80
2023-09-17T22:47:37.764Z,22.80
2023-09-17T22:50:45.835Z,22.80
2023-09-17T22:53:54.072Z,22.80
2023-09-17T22:57:03.526Z,22.80
2023-09-17T23:00:12.435Z,22.80
2023-09-17T23:03:20.357Z,22.80
2023-09-17T23:06:29.009Z,22.80
2023-09-17T23:09:37.006Z,22.80
2023-09-17T23:12:47.081Z,22.80
2023-09-17T23:15:56.797Z,22.80
2023-09-17T23:19:07.324Z,22.70
2023-09-17T23:22:15.516Z,22.70
2023-09-17T23:25:24.280Z,22.70
2023-09-17T23:28:34.060Z,22.70
2023-09-17T23:31:42.390Z,22.70
2023-09-17T23:34:50.653Z,22.70
2023-09-17T23:37:58.856Z,22.70
2023-09-17T23:41:09.452Z,22.70
2023-09-17T23:44:19.098Z,22.70
2023-09-17T23:47:27.170Z,22.70
2023-09-17T23:50:35.998Z,22.70
2023-09-17T23:53:43.910Z,22.70
2023-09-17T23:56:52.223Z,22.60
